createdAt,value
2018-03-26T00:01:34.660Z,12.00
2018-03-26T00:04:05.502Z,12.43
2018-03-26T00:06:37.357Z,13.50
2018-03-26T00:09:08.250Z,14.40
2018-03-26T00:11:39.969Z,13.07
2018-03-26T00:14:10.838Z,14.10
2018-03-26T00:16:42.453Z,14.20
2018-03-26T00:19:13.920Z,14.95
2018-03-26T00:21:44.855Z,13.70
2018-03-26T00:24:15.750Z,12.53
2018-03-26T00:26:46.672Z,15.00
2018-03-26T00:29:18.938Z,11.43
2018-03-26T00:31:50.627Z,14.10
2018-03-26T00:34:21.506Z,14.23
2018-03-26T00:36:51.935Z,11.90
2018-03-26T00:39:22.437Z,15.23
2018-03-26T00:41:52.890Z,13.77
2018-03-26T00:44:23.754Z,15.10
2018-03-26T00:46:55.438Z,15.40
2018-03-26T00:49:26.570Z,11.65
2018-03-26T00:51:57.344Z,18.23
2018-03-26T00:54:28.814Z,14.93
2018-03-26T00:57:00.525Z,14.90
2018-03-26T00:59:32.144Z,15.96
2018-03-26T01:02:03.674Z,13.67
2018-03-26T01:04:34.546Z,12.33
2018-03-26T01:07:06.108Z,12.65
2018-03-26T01:09:36.584Z,13.17
2018-03-26T01:12:07.456Z,13.32
2018-03-26T01:14:39.105Z,13.43
2018-03-26T01:17:10.720Z,18.40
2018-03-26T01:19:41.542Z,12.95
2018-03-26T01:22:12.227Z,15.37
2018-03-26T01:24:43.714Z,12.70
2018-03-26T01:27:14.291Z,15.27
2018-03-26T01:29:45.046Z,15.60
2018-03-26T01:32:16.595Z,13.25
2018-03-26T01:34:48.322Z,14.83
2018-03-26T01:37:19.351Z,14.53
2018-03-26T01:39:50.132Z,15.60
2018-03-26T01:42:23.158Z,13.63
2018-03-26T01:44:53.953Z,15.53
2018-03-26T01:47:26.224Z,18.77
2018-03-26T01:52:34.019Z,17.92
2018-03-26T01:55:05.120Z,19.20
2018-03-26T01:57:37.069Z,20.10
2018-03-26T02:00:07.987Z,25.67
2018-03-26T02:02:39.713Z,20.03
2018-03-26T02:05:10.486Z,18.80
2018-03-26T02:07:42.344Z,20.73
2018-03-26T02:10:13.998Z,19.30
2018-03-26T02:12:45.710Z,18.50
2018-03-26T02:15:16.516Z,17.87
2018-03-26T02:17:47.351Z,20.20
2018-03-26T02:20:18.972Z,21.10
2018-03-26T02:22:50.399Z,18.93
2018-03-26T02:25:21.357Z,22.08
2018-03-26T02:27:53.053Z,21.43
2018-03-26T02:30:24.288Z,21.50
2018-03-26T02:32:55.091Z,16.85
2018-03-26T02:35:25.931Z,20.00
2018-03-26T02:37:56.813Z,19.90
2018-03-26T02:40:27.545Z,20.37
2018-03-26T02:42:58.952Z,18.30
2018-03-26T02:45:31.565Z,24.27
2018-03-26T02:48:02.161Z,21.73
2018-03-26T02:50:33.170Z,24.93
2018-03-26T02:53:03.908Z,22.33
2018-03-26T02:55:34.720Z,24.70
2018-03-26T02:58:05.686Z,20.90
2018-03-26T03:00:36.547Z,19.23
2018-03-26T03:03:07.393Z,22.67
2018-03-26T03:05:39.056Z,19.10
2018-03-26T03:08:10.696Z,20.12
2018-03-26T03:10:43.271Z,20.77
2018-03-26T03:13:14.945Z,23.20
2018-03-26T03:15:46.577Z,26.10
2018-03-26T03:18:17.173Z,21.33
2018-03-26T03:20:48.024Z,24.53
2018-03-26T03:23:19.471Z,26.75
2018-03-26T03:25:50.300Z,34.23
2018-03-26T03:28:21.108Z,26.00
2018-03-26T03:30:51.882Z,31.47
2018-03-26T03:33:22.733Z,35.60
2018-03-26T03:35:53.492Z,34.07
2018-03-26T03:38:25.886Z,27.97
2018-03-26T03:40:56.610Z,31.97
2018-03-26T03:43:27.636Z,28.97
2018-03-26T03:45:59.202Z,30.52
2018-03-26T03:48:29.819Z,28.30
2018-03-26T03:51:01.276Z,35.17
2018-03-26T03:53:32.839Z,26.92
2018-03-26T03:56:03.520Z,31.60
2018-03-26T03:58:34.696Z,34.33
2018-03-26T04:01:06.464Z,31.83
2018-03-26T04:03:38.385Z,27.90
2018-03-26T04:06:09.344Z,27.60
2018-03-26T04:08:40.237Z,26.17
2018-03-26T04:11:11.543Z,32.33
2018-03-26T04:13:43.195Z,25.03
2018-03-26T04:16:17.022Z,25.73
2018-03-26T04:18:47.839Z,30.43
2018-03-26T04:21:19.540Z,23.53
2018-03-26T04:23:51.214Z,25.27
2018-03-26T04:26:21.995Z,25.33
2018-03-26T04:28:53.610Z,22.00
2018-03-26T04:31:24.741Z,24.77
2018-03-26T04:33:55.504Z,25.95
2018-03-26T04:36:27.078Z,21.83
2018-03-26T04:38:58.659Z,22.98
2018-03-26T04:41:29.622Z,24.37
2018-03-26T04:44:02.220Z,20.40
2018-03-26T04:46:33.631Z,24.43
2018-03-26T04:49:04.585Z,28.60
2018-03-26T04:51:35.460Z,29.12
2018-03-26T04:54:06.952Z,21.50
2018-03-26T04:56:38.873Z,24.37
2018-03-26T04:59:11.543Z,21.27
2018-03-26T05:01:43.304Z,23.57
2018-03-26T05:04:15.116Z,19.33
2018-03-26T05:06:45.895Z,20.00
2018-03-26T05:09:17.297Z,22.30
2018-03-26T05:11:48.218Z,18.92
2018-03-26T05:14:19.875Z,26.50
2018-03-26T05:16:50.740Z,16.83
2018-03-26T05:19:21.335Z,18.90
2018-03-26T05:21:53.326Z,17.40
2018-03-26T05:24:25.794Z,19.50
2018-03-26T05:26:56.273Z,19.45
2018-03-26T05:29:28.041Z,21.80
2018-03-26T05:31:58.936Z,16.43
2018-03-26T05:34:29.757Z,17.17
2018-03-26T05:37:00.580Z,17.45
2018-03-26T05:39:31.077Z,16.27
2018-03-26T05:42:02.734Z,18.87
2018-03-26T05:44:34.536Z,15.33
2018-03-26T05:47:05.735Z,15.63
2018-03-26T05:49:38.281Z,15.75
2018-03-26T05:52:09.131Z,17.23
2018-03-26T05:54:40.029Z,17.35
2018-03-26T05:57:10.580Z,17.30
2018-03-26T05:59:41.076Z,16.50
2018-03-26T06:02:11.883Z,19.25
2018-03-26T06:04:43.447Z,16.80
2018-03-26T06:07:15.069Z,16.50
2018-03-26T06:09:45.903Z,16.33
2018-03-26T06:12:16.661Z,15.70
2018-03-26T06:14:49.172Z,23.07
2018-03-26T06:17:19.700Z,25.37
2018-03-26T06:19:50.768Z,27.53
2018-03-26T06:22:22.647Z,31.57
2018-03-26T06:24:54.661Z,26.25
2018-03-26T06:27:25.552Z,24.27
2018-03-26T06:29:57.322Z,22.33
2018-03-26T06:32:28.813Z,31.83
2018-03-26T06:34:59.388Z,22.07
2018-03-26T06:37:35.085Z,22.80
2018-03-26T06:40:05.544Z,23.77
2018-03-26T06:42:36.217Z,22.90
2018-03-26T06:45:07.465Z,30.27
2018-03-26T06:47:38.790Z,26.30
2018-03-26T06:50:09.534Z,22.70
2018-03-26T06:52:40.824Z,24.00
2018-03-26T06:55:12.736Z,25.90
2018-03-26T06:57:43.733Z,22.47
2018-03-26T07:00:15.052Z,21.13
2018-03-26T07:02:46.001Z,26.20
2018-03-26T07:05:16.709Z,23.37
2018-03-26T07:07:48.368Z,26.03
2018-03-26T07:10:20.080Z,21.20
2018-03-26T07:12:50.824Z,22.77
2018-03-26T07:15:21.660Z,21.30
2018-03-26T07:17:52.402Z,21.57
2018-03-26T07:20:23.378Z,22.90
2018-03-26T07:22:55.035Z,22.10
2018-03-26T07:25:26.593Z,19.53
2018-03-26T07:27:57.317Z,22.10
2018-03-26T07:30:28.855Z,19.87
2018-03-26T07:32:59.676Z,22.20
2018-03-26T07:35:30.456Z,21.43
2018-03-26T07:38:01.228Z,19.73
2018-03-26T07:40:32.006Z,20.23
2018-03-26T07:43:04.380Z,19.80
2018-03-26T07:45:36.172Z,16.93
2018-03-26T07:48:07.024Z,16.67
2018-03-26T07:50:37.944Z,19.90
2018-03-26T07:53:09.194Z,18.87
2018-03-26T07:55:40.683Z,17.77
2018-03-26T07:58:11.534Z,15.73
2018-03-26T08:00:43.269Z,18.90
2018-03-26T08:03:18.503Z,16.40
2018-03-26T08:05:49.536Z,16.70
2018-03-26T08:08:20.460Z,16.10
2018-03-26T08:10:51.341Z,16.77
2018-03-26T08:13:22.146Z,17.83
2018-03-26T08:15:52.897Z,16.50
2018-03-26T08:18:25.964Z,16.13
2018-03-26T08:20:56.757Z,16.17
2018-03-26T08:23:28.531Z,16.07
2018-03-26T08:25:59.145Z,15.93
2018-03-26T08:28:30.765Z,17.43
2018-03-26T08:31:01.567Z,16.20
2018-03-26T08:33:32.385Z,16.90
2018-03-26T08:36:04.187Z,20.83
2018-03-26T08:38:35.199Z,18.40
2018-03-26T08:41:06.048Z,17.77
2018-03-26T08:43:36.824Z,16.10
2018-03-26T08:46:07.536Z,20.33
2018-03-26T08:48:38.314Z,16.90
2018-03-26T08:51:08.771Z,19.70
2018-03-26T08:53:40.311Z,17.73
2018-03-26T08:56:11.210Z,18.93
2018-03-26T08:58:41.675Z,17.33
2018-03-26T09:01:12.395Z,24.27
2018-03-26T09:03:43.239Z,20.20
2018-03-26T09:06:14.163Z,18.63
2018-03-26T09:08:45.564Z,16.90
2018-03-26T09:11:16.245Z,18.33
2018-03-26T09:13:47.717Z,17.53
2018-03-26T09:16:19.320Z,18.33
2018-03-26T09:18:50.185Z,18.13
2018-03-26T09:21:21.967Z,18.70
2018-03-26T09:23:52.801Z,18.20
2018-03-26T09:26:24.231Z,18.03
2018-03-26T09:28:56.651Z,18.80
2018-03-26T09:31:27.499Z,16.43
2018-03-26T09:33:58.554Z,18.37
2018-03-26T09:36:30.910Z,15.60
2018-03-26T09:39:01.813Z,19.77
2018-03-26T09:41:32.824Z,17.77
2018-03-26T09:44:04.304Z,15.03
2018-03-26T09:46:35.424Z,16.80
2018-03-26T09:49:07.108Z,15.63
2018-03-26T09:51:38.092Z,15.20
2018-03-26T09:54:08.980Z,17.23
2018-03-26T09:56:39.938Z,18.10
2018-03-26T09:59:10.554Z,17.70
2018-03-26T10:01:46.485Z,16.07
2018-03-26T10:04:17.828Z,15.97
2018-03-26T10:06:50.539Z,16.20
2018-03-26T10:09:21.517Z,18.03
2018-03-26T10:11:52.381Z,15.67
2018-03-26T10:14:23.872Z,15.30
2018-03-26T10:16:54.932Z,16.40
2018-03-26T10:19:26.533Z,15.00
2018-03-26T10:21:57.747Z,16.00
2018-03-26T10:24:28.377Z,17.37
2018-03-26T10:26:59.140Z,18.80
2018-03-26T10:29:30.799Z,24.83
2018-03-26T10:32:02.450Z,18.67
2018-03-26T10:34:34.167Z,18.83
2018-03-26T10:37:04.790Z,22.57
2018-03-26T10:39:35.605Z,16.03
2018-03-26T10:42:06.458Z,18.80
2018-03-26T10:44:37.332Z,20.83
2018-03-26T10:47:08.540Z,22.30
2018-03-26T10:49:40.035Z,24.37
2018-03-26T10:52:10.752Z,21.10
2018-03-26T10:54:57.190Z,25.67
2018-03-26T10:57:44.372Z,21.60
2018-03-26T11:00:16.290Z,28.73
2018-03-26T11:02:47.178Z,22.10
2018-03-26T11:05:18.129Z,17.87
2018-03-26T11:07:50.810Z,22.67
2018-03-26T11:10:21.952Z,25.60
2018-03-26T11:12:52.777Z,21.47
2018-03-26T11:15:23.660Z,21.20
2018-03-26T11:17:55.722Z,35.13
2018-03-26T11:20:27.864Z,30.90
2018-03-26T11:23:00.285Z,22.63
2018-03-26T11:25:42.228Z,30.03
2018-03-26T11:28:16.672Z,20.23
2018-03-26T11:30:49.813Z,17.67
2018-03-26T11:33:22.285Z,26.10
2018-03-26T11:35:55.024Z,18.70
2018-03-26T11:38:25.903Z,24.57
2018-03-26T11:40:57.733Z,20.60
2018-03-26T11:43:28.886Z,22.97
2018-03-26T11:46:01.643Z,22.10
2018-03-26T11:48:34.275Z,16.00
2018-03-26T11:51:06.552Z,18.93
2018-03-26T11:53:40.004Z,21.77
2018-03-26T11:56:11.676Z,20.73
2018-03-26T11:58:43.138Z,25.30
2018-03-26T12:01:15.334Z,20.10
2018-03-26T12:03:48.415Z,20.33
2018-03-26T12:06:19.888Z,21.90
2018-03-26T12:08:51.014Z,20.37
2018-03-26T12:11:21.974Z,21.33
2018-03-26T12:16:31.544Z,19.57
2018-03-26T12:19:02.497Z,14.80
2018-03-26T12:21:34.529Z,22.27
2018-03-26T12:24:16.216Z,19.43
2018-03-26T12:26:47.834Z,20.70
2018-03-26T12:29:30.172Z,16.80
2018-03-26T12:32:02.580Z,16.47
2018-03-26T12:34:44.232Z,17.20
2018-03-26T12:37:15.177Z,21.23
2018-03-26T12:39:47.511Z,21.67
2018-03-26T12:42:18.487Z,26.27
2018-03-26T12:45:00.689Z,23.03
2018-03-26T12:47:33.362Z,24.33
2018-03-26T12:50:06.136Z,19.63
2018-03-26T12:52:47.854Z,22.90
2018-03-26T12:55:21.908Z,23.63
2018-03-26T12:58:03.324Z,25.90
2018-03-26T13:00:34.283Z,22.40
2018-03-26T13:03:05.434Z,29.60
2018-03-26T13:05:37.202Z,23.13
2018-03-26T13:08:08.795Z,25.50
2018-03-26T13:10:45.383Z,25.03
2018-03-26T13:13:16.398Z,21.77
2018-03-26T13:15:47.835Z,20.97
2018-03-26T13:18:19.062Z,23.07
2018-03-26T13:20:50.720Z,25.23
2018-03-26T13:23:22.145Z,21.77
2018-03-26T13:25:55.389Z,18.20
2018-03-26T13:28:27.935Z,26.93
2018-03-26T13:31:00.396Z,26.27
2018-03-26T13:33:31.700Z,26.83
2018-03-26T13:36:03.010Z,24.10
2018-03-26T13:38:34.435Z,19.73
2018-03-26T13:41:06.320Z,18.60
2018-03-26T13:43:37.209Z,27.17
2018-03-26T13:46:08.507Z,20.40
2018-03-26T13:48:41.084Z,30.37
2018-03-26T13:51:12.693Z,23.20
2018-03-26T13:53:44.314Z,22.77
2018-03-26T13:56:15.256Z,24.23
2018-03-26T13:58:46.407Z,19.27
2018-03-26T14:01:18.388Z,34.83
2018-03-26T14:03:49.385Z,25.10
2018-03-26T14:06:20.323Z,29.73
2018-03-26T14:09:01.781Z,30.33
2018-03-26T14:11:43.846Z,26.13
2018-03-26T14:14:25.206Z,28.10
2018-03-26T14:17:07.964Z,30.93
2018-03-26T14:19:38.723Z,22.47
2018-03-26T14:22:10.253Z,24.33
2018-03-26T14:24:41.277Z,17.80
2018-03-26T14:27:12.074Z,23.70
2018-03-26T14:29:43.262Z,24.17
2018-03-26T14:32:14.144Z,28.20
2018-03-26T14:37:47.073Z,19.80
2018-03-26T14:40:17.968Z,24.27
2018-03-26T14:42:54.091Z,22.67
2018-03-26T14:45:25.814Z,26.93
2018-03-26T14:47:57.238Z,33.90
2018-03-26T14:50:28.170Z,27.57
2018-03-26T14:52:59.240Z,30.00
2018-03-26T14:55:30.184Z,25.17
2018-03-26T14:58:02.872Z,20.80
2018-03-26T15:00:33.682Z,24.52
2018-03-26T15:03:05.516Z,27.13
2018-03-26T15:05:36.255Z,34.40
2018-03-26T15:08:07.884Z,25.73
2018-03-26T15:10:38.859Z,30.53
2018-03-26T15:13:15.077Z,28.02
2018-03-26T15:15:46.224Z,29.90
2018-03-26T15:18:17.409Z,31.30
2018-03-26T15:20:49.847Z,28.52
2018-03-26T15:23:21.180Z,29.50
2018-03-26T15:25:52.234Z,22.63
2018-03-26T15:28:24.080Z,27.27
2018-03-26T15:30:55.126Z,29.30
2018-03-26T15:33:26.150Z,30.10
2018-03-26T15:35:57.085Z,36.97
2018-03-26T15:38:28.578Z,30.87
2018-03-26T15:41:08.765Z,33.95
2018-03-26T15:43:39.654Z,28.23
2018-03-26T15:46:10.454Z,23.90
2018-03-26T15:48:41.387Z,26.93
2018-03-26T15:51:12.268Z,31.27
2018-03-26T15:53:43.628Z,21.55
2018-03-26T15:56:14.232Z,26.10
2018-03-26T15:58:44.979Z,25.10
2018-03-26T16:01:16.166Z,30.27
2018-03-26T16:03:47.821Z,24.52
2018-03-26T16:06:18.872Z,17.77
2018-03-26T16:08:50.661Z,18.33
2018-03-26T16:11:22.573Z,17.10
2018-03-26T16:13:55.762Z,15.65
2018-03-26T16:16:28.472Z,17.00
2018-03-26T16:19:00.108Z,14.07
2018-03-26T16:21:31.911Z,16.10
2018-03-26T16:24:02.533Z,20.20
2018-03-26T16:26:34.125Z,13.77
2018-03-26T16:29:05.026Z,13.50
2018-03-26T16:31:36.724Z,13.63
2018-03-26T16:34:08.081Z,12.90
2018-03-26T16:36:38.599Z,15.50
2018-03-26T16:39:09.496Z,14.30
2018-03-26T16:41:54.969Z,12.90
2018-03-26T16:44:25.727Z,15.97
2018-03-26T16:46:56.741Z,14.67
2018-03-26T16:49:28.800Z,17.57
2018-03-26T16:51:59.851Z,14.20
2018-03-26T16:54:30.796Z,14.43
2018-03-26T16:57:01.668Z,14.23
2018-03-26T16:59:32.580Z,15.53
2018-03-26T17:02:03.533Z,14.80
2018-03-26T17:04:34.636Z,14.80
2018-03-26T17:07:05.671Z,16.45
2018-03-26T17:09:36.631Z,14.00
2018-03-26T17:12:07.633Z,13.33
2018-03-26T17:14:39.993Z,14.87
2018-03-26T17:17:10.741Z,18.90
2018-03-26T17:19:42.385Z,15.90
2018-03-26T17:22:13.163Z,12.97
2018-03-26T17:24:44.170Z,13.23
2018-03-26T17:27:15.717Z,12.47
2018-03-26T17:29:47.480Z,13.30
2018-03-26T17:32:19.076Z,14.90
2018-03-26T17:34:49.923Z,14.70
2018-03-26T17:37:22.207Z,16.60
2018-03-26T17:39:53.136Z,13.33
2018-03-26T17:42:23.695Z,12.77
2018-03-26T17:44:54.660Z,13.23
2018-03-26T17:47:25.614Z,12.60
2018-03-26T17:49:56.450Z,14.40
2018-03-26T17:52:27.487Z,14.17
2018-03-26T17:54:58.595Z,14.33
2018-03-26T17:57:29.575Z,13.27
2018-03-26T18:00:00.404Z,13.33
2018-03-26T18:02:31.153Z,14.07
2018-03-26T18:05:02.282Z,13.73
2018-03-26T18:07:33.941Z,12.50
2018-03-26T18:10:04.782Z,12.73
2018-03-26T18:12:36.533Z,11.80
2018-03-26T18:15:07.370Z,12.53
2018-03-26T18:17:38.436Z,12.67
2018-03-26T18:20:09.466Z,12.80
2018-03-26T18:22:40.048Z,12.03
2018-03-26T18:25:10.954Z,12.13
2018-03-26T18:27:42.613Z,12.83
2018-03-26T18:30:15.348Z,11.00
2018-03-26T18:32:46.791Z,12.63
2018-03-26T18:35:18.783Z,13.40
2018-03-26T18:37:49.727Z,12.00
2018-03-26T18:40:20.550Z,12.87
2018-03-26T18:42:51.493Z,11.27
2018-03-26T18:45:22.400Z,11.03
2018-03-26T18:47:54.000Z,13.73
2018-03-26T18:50:24.808Z,11.80
2018-03-26T18:52:55.559Z,9.57
2018-03-26T18:55:26.266Z,11.30
2018-03-26T18:57:59.282Z,11.80
2018-03-26T19:00:30.192Z,8.53
2018-03-26T19:03:01.741Z,8.83
2018-03-26T19:05:32.727Z,10.40
2018-03-26T19:08:03.658Z,7.67
2018-03-26T19:10:34.650Z,8.17
2018-03-26T19:13:06.336Z,8.23
2018-03-26T19:15:37.177Z,12.40
2018-03-26T19:18:08.152Z,7.13
2018-03-26T19:20:40.424Z,7.30
2018-03-26T19:23:10.949Z,7.90
2018-03-26T19:25:41.679Z,8.03
2018-03-26T19:28:12.601Z,7.50
2018-03-26T19:30:43.415Z,7.43
2018-03-26T19:33:14.336Z,8.23
2018-03-26T19:35:46.215Z,7.47
2018-03-26T19:38:17.091Z,7.90
2018-03-26T19:40:48.466Z,6.83
2018-03-26T19:43:19.989Z,6.43
2018-03-26T19:45:51.614Z,6.67
2018-03-26T19:48:23.059Z,7.87
2018-03-26T19:50:53.895Z,7.40
2018-03-26T19:53:24.710Z,7.20
2018-03-26T19:55:56.388Z,7.53
2018-03-26T19:58:27.109Z,7.13
2018-03-26T20:00:57.830Z,7.03
2018-03-26T20:03:29.870Z,11.90
2018-03-26T20:06:00.603Z,10.63
2018-03-26T20:08:31.607Z,13.20
2018-03-26T20:11:02.404Z,6.87
2018-03-26T20:13:34.489Z,7.30
2018-03-26T20:16:05.087Z,6.63
2018-03-26T20:18:35.988Z,6.67
2018-03-26T20:21:07.216Z,7.30
2018-03-26T20:23:38.153Z,6.40
2018-03-26T20:26:09.266Z,6.60
2018-03-26T20:28:42.273Z,6.47
2018-03-26T20:31:13.015Z,7.20
2018-03-26T20:33:43.932Z,7.40
2018-03-26T20:36:16.352Z,6.60
2018-03-26T20:38:47.703Z,6.07
2018-03-26T20:41:18.494Z,7.70
2018-03-26T20:43:49.429Z,6.60
2018-03-26T20:46:20.751Z,6.80
2018-03-26T20:48:51.627Z,6.03
2018-03-26T20:51:22.467Z,6.90
2018-03-26T20:53:53.603Z,6.00
2018-03-26T20:56:24.561Z,8.67
2018-03-26T20:58:55.360Z,6.17
2018-03-26T21:01:29.044Z,6.10
2018-03-26T21:03:59.748Z,6.60
2018-03-26T21:06:30.600Z,5.57
2018-03-26T21:09:01.597Z,6.47
2018-03-26T21:11:32.545Z,6.47
2018-03-26T21:14:03.476Z,12.00
2018-03-26T21:16:34.356Z,5.87
2018-03-26T21:19:05.391Z,5.80
2018-03-26T21:21:36.185Z,5.00
2018-03-26T21:24:07.226Z,5.77
2018-03-26T21:26:37.974Z,5.97
2018-03-26T21:29:08.740Z,5.37
2018-03-26T21:31:40.370Z,8.10
2018-03-26T21:34:11.265Z,5.20
2018-03-26T21:36:42.863Z,6.50
2018-03-26T21:39:13.796Z,6.50
2018-03-26T21:41:44.953Z,6.93
2018-03-26T21:44:15.909Z,6.53
2018-03-26T21:46:46.890Z,6.07
2018-03-26T21:49:18.728Z,6.47
2018-03-26T21:51:50.495Z,6.80
2018-03-26T21:54:25.535Z,6.30
2018-03-26T21:56:56.508Z,6.63
2018-03-26T21:59:27.556Z,7.10
2018-03-26T22:01:58.463Z,9.30
2018-03-26T22:04:29.484Z,7.57
2018-03-26T22:07:00.991Z,6.50
2018-03-26T22:09:31.942Z,6.18
2018-03-26T22:12:02.986Z,5.63
2018-03-26T22:14:35.032Z,6.60
2018-03-26T22:17:06.139Z,7.90
2018-03-26T22:19:37.094Z,7.00
2018-03-26T22:22:08.019Z,5.90
2018-03-26T22:24:38.634Z,6.20
2018-03-26T22:27:10.140Z,6.47
2018-03-26T22:29:40.943Z,7.23
2018-03-26T22:32:11.888Z,6.93
2018-03-26T22:34:42.760Z,6.73
2018-03-26T22:37:13.484Z,6.63
2018-03-26T22:39:45.377Z,7.90
2018-03-26T22:42:17.308Z,6.93
2018-03-26T22:44:48.133Z,7.20
2018-03-26T22:47:18.988Z,6.77
2018-03-26T22:49:50.083Z,6.43
2018-03-26T22:52:21.524Z,8.70
2018-03-26T22:54:53.267Z,8.87
2018-03-26T22:57:24.144Z,6.97
2018-03-26T22:59:54.695Z,7.03
2018-03-26T23:02:25.364Z,5.93
2018-03-26T23:04:56.341Z,8.60
2018-03-26T23:07:27.292Z,7.53
2018-03-26T23:09:58.993Z,8.13
2018-03-26T23:12:29.554Z,7.97
2018-03-26T23:15:00.132Z,7.90
2018-03-26T23:17:30.666Z,8.07
2018-03-26T23:20:01.273Z,8.07
2018-03-26T23:22:42.453Z,9.47
2018-03-26T23:25:12.980Z,7.43
2018-03-26T23:27:43.779Z,8.10
2018-03-26T23:30:15.072Z,9.60
2018-03-26T23:32:46.593Z,11.17
2018-03-26T23:35:17.176Z,8.70
2018-03-26T23:37:47.731Z,7.63
2018-03-26T23:40:19.299Z,7.43
2018-03-26T23:42:50.901Z,8.77
2018-03-26T23:45:21.625Z,8.43
2018-03-26T23:47:52.413Z,8.83
2018-03-26T23:50:24.069Z,10.63
2018-03-26T23:52:55.661Z,9.47
2018-03-26T23:55:26.697Z,9.03
2018-03-26T23:57:57.462Z,7.83
